sensor_id;sensor_type;location;lat;lon;timestamp;temperature;humidity
13817;DHT22;6979;52.116;5.286;2022-12-18T00:00:46;1.60;99.90
13817;DHT22;6979;52.116;5.286;2022-12-18T00:03:14;1.60;99.90
13817;DHT22;6979;52.116;5.286;2022-12-18T00:05:47;1.60;99.90
13817;DHT22;6979;52.116;5.286;2022-12-18T00:08:14;1.50;99.90
13817;DHT22;6979;52.116;5.286;2022-12-18T00:10:41;1.50;99.90
13817;DHT22;6979;52.116;5.286;2022-12-18T00:13:09;1.50;99.90
13817;DHT22;6979;52.116;5.286;2022-12-18T00:15:38;1.50;99.90
13817;DHT22;6979;52.116;5.286;2022-12-18T00:18:06;1.50;99.90
13817;DHT22;6979;52.116;5.286;2022-12-18T00:20:36;1.50;99.90
13817;DHT22;6979;52.116;5.286;2022-12-18T00:23:04;1.50;99.90
13817;DHT22;6979;52.116;5.286;2022-12-18T00:25:33;1.50;99.90
13817;DHT22;6979;52.116;5.286;2022-12-18T00:28:00;1.50;99.90
13817;DHT22;6979;52.116;5.286;2022-12-18T00:30:27;1.50;99.90
13817;DHT22;6979;52.116;5.286;2022-12-18T00:32:56;1.50;99.90
13817;DHT22;6979;52.116;5.286;2022-12-18T00:35:25;1.50;99.90
13817;DHT22;6979;52.116;5.286;2022-12-18T00:37:52;1.50;99.90
13817;DHT22;6979;52.116;5.286;2022-12-18T00:40:18;1.50;99.90
13817;DHT22;6979;52.116;5.286;2022-12-18T00:42:45;1.50;99.90
13817;DHT22;6979;52.116;5.286;2022-12-18T00:45:23;1.50;99.90
13817;DHT22;6979;52.116;5.286;2022-12-18T00:47:51;1.60;99.90
13817;DHT22;6979;52.116;5.286;2022-12-18T00:50:19;1.60;99.90
13817;DHT22;6979;52.116;5.286;2022-12-18T00:52:46;1.60;99.90
13817;DHT22;6979;52.116;5.286;2022-12-18T00:55:13;1.60;99.90
13817;DHT22;6979;52.116;5.286;2022-12-18T00:57:41;1.60;99.90
13817;DHT22;6979;52.116;5.286;2022-12-18T01:00:10;1.60;99.90
13817;DHT22;6979;52.116;5.286;2022-12-18T01:02:38;1.60;99.90
13817;DHT22;6979;52.116;5.286;2022-12-18T01:05:07;1.50;99.90
13817;DHT22;6979;52.116;5.286;2022-12-18T01:07:36;1.50;99.90
13817;DHT22;6979;52.116;5.286;2022-12-18T01:10:04;1.50;99.90
13817;DHT22;6979;52.116;5.286;2022-12-18T01:12:31;1.50;99.90
13817;DHT22;6979;52.116;5.286;2022-12-18T01:14:58;1.40;99.90
13817;DHT22;6979;52.116;5.286;2022-12-18T01:17:25;1.40;99.90
13817;DHT22;6979;52.116;5.286;2022-12-18T01:19:52;1.40;99.90
13817;DHT22;6979;52.116;5.286;2022-12-18T01:22:19;1.30;99.90
13817;DHT22;6979;52.116;5.286;2022-12-18T01:24:48;1.30;99.90
13817;DHT22;6979;52.116;5.286;2022-12-18T01:27:15;1.30;99.90
13817;DHT22;6979;52.116;5.286;2022-12-18T01:29:41;1.20;99.90
13817;DHT22;6979;52.116;5.286;2022-12-18T01:32:09;1.20;99.90
13817;DHT22;6979;52.116;5.286;2022-12-18T01:34:36;1.20;99.90
13817;DHT22;6979;52.116;5.286;2022-12-18T01:37:04;1.20;99.90
13817;DHT22;6979;52.116;5.286;2022-12-18T01:39:31;1.20;99.90
13817;DHT22;6979;52.116;5.286;2022-12-18T01:42:00;1.20;99.90
13817;DHT22;6979;52.116;5.286;2022-12-18T01:45:00;1.20;99.90
13817;DHT22;6979;52.116;5.286;2022-12-18T01:47:31;1.10;99.90
13817;DHT22;6979;52.116;5.286;2022-12-18T01:50:00;1.20;99.90
13817;DHT22;6979;52.116;5.286;2022-12-18T01:52:31;1.10;99.90
13817;DHT22;6979;52.116;5.286;2022-12-18T01:54:59;1.20;99.90
13817;DHT22;6979;52.116;5.286;2022-12-18T01:57:28;1.10;99.90
13817;DHT22;6979;52.116;5.286;2022-12-18T01:59:59;1.20;99.90
13817;DHT22;6979;52.116;5.286;2022-12-18T02:02:26;1.10;99.90
13817;DHT22;6979;52.116;5.286;2022-12-18T02:04:54;1.20;99.90
13817;DHT22;6979;52.116;5.286;2022-12-18T02:07:29;1.20;99.90
13817;DHT22;6979;52.116;5.286;2022-12-18T02:10:03;1.20;99.90
13817;DHT22;6979;52.116;5.286;2022-12-18T02:12:42;1.10;99.90
13817;DHT22;6979;52.116;5.286;2022-12-18T02:15:13;1.10;99.90
13817;DHT22;6979;52.116;5.286;2022-12-18T02:17:47;1.10;99.90
13817;DHT22;6979;52.116;5.286;2022-12-18T02:20:19;1.10;99.90
13817;DHT22;6979;52.116;5.286;2022-12-18T02:23:01;1.10;99.90
13817;DHT22;6979;52.116;5.286;2022-12-18T02:28:41;1.10;99.90
13817;DHT22;6979;52.116;5.286;2022-12-18T02:31:13;1.10;99.90
13817;DHT22;6979;52.116;5.286;2022-12-18T02:33:43;1.10;99.90
13817;DHT22;6979;52.116;5.286;2022-12-18T02:36:13;1.00;99.90
13817;DHT22;6979;52.116;5.286;2022-12-18T02:38:42;1.00;99.90
13817;DHT22;6979;52.116;5.286;2022-12-18T02:41:13;1.00;99.90
13817;DHT22;6979;52.116;5.286;2022-12-18T02:43:47;1.00;99.90
13817;DHT22;6979;52.116;5.286;2022-12-18T02:46:35;1.00;99.90
13817;DHT22;6979;52.116;5.286;2022-12-18T02:49:21;1.00;99.90
13817;DHT22;6979;52.116;5.286;2022-12-18T02:51:53;1.00;99.90
13817;DHT22;6979;52.116;5.286;2022-12-18T02:54:38;0.90;99.90
13817;DHT22;6979;52.116;5.286;2022-12-18T02:57:14;0.90;99.90
13817;DHT22;6979;52.116;5.286;2022-12-18T02:59:51;0.90;99.90
13817;DHT22;6979;52.116;5.286;2022-12-18T03:02:24;0.90;99.90
13817;DHT22;6979;52.116;5.286;2022-12-18T03:04:57;0.80;99.90
13817;DHT22;6979;52.116;5.286;2022-12-18T03:07:34;0.80;99.90
13817;DHT22;6979;52.116;5.286;2022-12-18T03:10:05;0.70;99.90
13817;DHT22;6979;52.116;5.286;2022-12-18T03:12:40;0.70;99.90
13817;DHT22;6979;52.116;5.286;2022-12-18T03:15:14;0.70;99.90
13817;DHT22;6979;52.116;5.286;2022-12-18T03:17:46;0.70;99.90
13817;DHT22;6979;52.116;5.286;2022-12-18T03:20:19;0.60;99.90
13817;DHT22;6979;52.116;5.286;2022-12-18T03:22:51;0.60;99.90
13817;DHT22;6979;52.116;5.286;2022-12-18T03:25:19;0.60;99.90
13817;DHT22;6979;52.116;5.286;2022-12-18T03:27:49;0.50;99.90
13817;DHT22;6979;52.116;5.286;2022-12-18T03:30:20;0.50;99.90
13817;DHT22;6979;52.116;5.286;2022-12-18T03:32:52;0.50;99.90
13817;DHT22;6979;52.116;5.286;2022-12-18T03:35:24;0.50;99.90
13817;DHT22;6979;52.116;5.286;2022-12-18T03:37:53;0.40;99.90
13817;DHT22;6979;52.116;5.286;2022-12-18T03:40:21;0.40;99.90
13817;DHT22;6979;52.116;5.286;2022-12-18T03:42:55;0.30;99.90
13817;DHT22;6979;52.116;5.286;2022-12-18T03:45:32;0.30;99.90
13817;DHT22;6979;52.116;5.286;2022-12-18T03:48:04;0.30;99.90
13817;DHT22;6979;52.116;5.286;2022-12-18T03:50:42;0.30;99.90
13817;DHT22;6979;52.116;5.286;2022-12-18T03:53:23;0.20;99.90
13817;DHT22;6979;52.116;5.286;2022-12-18T03:55:52;0.20;99.90
13817;DHT22;6979;52.116;5.286;2022-12-18T03:58:23;0.20;99.90
13817;DHT22;6979;52.116;5.286;2022-12-18T04:01:12;0.10;99.90
13817;DHT22;6979;52.116;5.286;2022-12-18T04:03:44;0.10;99.90
13817;DHT22;6979;52.116;5.286;2022-12-18T04:06:14;0.10;99.90
13817;DHT22;6979;52.116;5.286;2022-12-18T04:08:43;0.00;99.90
13817;DHT22;6979;52.116;5.286;2022-12-18T04:11:13;0.00;99.90
13817;DHT22;6979;52.116;5.286;2022-12-18T04:13:42;0.00;99.90
13817;DHT22;6979;52.116;5.286;2022-12-18T04:16:19;-0.10;99.90
13817;DHT22;6979;52.116;5.286;2022-12-18T04:18:49;-0.10;99.90
13817;DHT22;6979;52.116;5.286;2022-12-18T04:21:18;-0.10;99.90
13817;DHT22;6979;52.116;5.286;2022-12-18T04:23:45;-0.10;99.90
13817;DHT22;6979;52.116;5.286;2022-12-18T04:26:12;-0.20;99.90
13817;DHT22;6979;52.116;5.286;2022-12-18T04:28:59;-0.20;99.90
13817;DHT22;6979;52.116;5.286;2022-12-18T04:31:29;-0.20;99.90
13817;DHT22;6979;52.116;5.286;2022-12-18T04:33:56;-0.30;99.90
13817;DHT22;6979;52.116;5.286;2022-12-18T04:36:27;-0.30;99.90
13817;DHT22;6979;52.116;5.286;2022-12-18T04:38:54;-0.30;99.90
13817;DHT22;6979;52.116;5.286;2022-12-18T04:41:21;-0.30;99.90
13817;DHT22;6979;52.116;5.286;2022-12-18T04:43:51;-0.30;99.90
13817;DHT22;6979;52.116;5.286;2022-12-18T04:46:18;-0.40;99.90
13817;DHT22;6979;52.116;5.286;2022-12-18T04:48:47;-0.40;99.90
13817;DHT22;6979;52.116;5.286;2022-12-18T04:51:14;-0.40;99.90
13817;DHT22;6979;52.116;5.286;2022-12-18T04:53:41;-0.40;99.90
13817;DHT22;6979;52.116;5.286;2022-12-18T04:56:09;-0.40;99.90
13817;DHT22;6979;52.116;5.286;2022-12-18T04:58:38;-0.50;99.90
13817;DHT22;6979;52.116;5.286;2022-12-18T05:01:05;-0.50;99.90
13817;DHT22;6979;52.116;5.286;2022-12-18T05:03:33;-0.50;99.90
13817;DHT22;6979;52.116;5.286;2022-12-18T05:06:02;-0.50;99.90
13817;DHT22;6979;52.116;5.286;2022-12-18T05:08:29;-0.50;99.90
13817;DHT22;6979;52.116;5.286;2022-12-18T05:10:59;-0.50;99.90
13817;DHT22;6979;52.116;5.286;2022-12-18T05:13:26;-0.50;99.90
13817;DHT22;6979;52.116;5.286;2022-12-18T05:15:54;-0.50;99.90
13817;DHT22;6979;52.116;5.286;2022-12-18T05:18:21;-0.50;99.90
13817;DHT22;6979;52.116;5.286;2022-12-18T05:20:49;-0.50;99.90
13817;DHT22;6979;52.116;5.286;2022-12-18T05:23:18;-0.50;99.90
13817;DHT22;6979;52.116;5.286;2022-12-18T05:25:51;-0.50;99.90
13817;DHT22;6979;52.116;5.286;2022-12-18T05:28:18;-0.50;99.90
13817;DHT22;6979;52.116;5.286;2022-12-18T05:30:48;-0.50;99.90
13817;DHT22;6979;52.116;5.286;2022-12-18T05:33:15;-0.50;99.90
13817;DHT22;6979;52.116;5.286;2022-12-18T05:35:42;-0.50;99.90
13817;DHT22;6979;52.116;5.286;2022-12-18T05:38:09;-0.50;99.90
13817;DHT22;6979;52.116;5.286;2022-12-18T05:40:41;-0.60;99.90
13817;DHT22;6979;52.116;5.286;2022-12-18T05:43:08;-0.60;99.90
13817;DHT22;6979;52.116;5.286;2022-12-18T05:45:37;-0.60;99.90
13817;DHT22;6979;52.116;5.286;2022-12-18T05:48:05;-0.60;99.90
13817;DHT22;6979;52.116;5.286;2022-12-18T05:50:34;-0.60;99.90
13817;DHT22;6979;52.116;5.286;2022-12-18T05:53:01;-0.60;99.90
13817;DHT22;6979;52.116;5.286;2022-12-18T05:55:28;-0.60;99.90
13817;DHT22;6979;52.116;5.286;2022-12-18T05:57:56;-0.60;99.90
13817;DHT22;6979;52.116;5.286;2022-12-18T06:00:23;-0.60;99.90
13817;DHT22;6979;52.116;5.286;2022-12-18T06:02:49;-0.70;99.90
13817;DHT22;6979;52.116;5.286;2022-12-18T06:05:16;-0.70;99.90
13817;DHT22;6979;52.116;5.286;2022-12-18T06:07:43;-0.70;99.90
13817;DHT22;6979;52.116;5.286;2022-12-18T06:10:10;-0.70;99.90
13817;DHT22;6979;52.116;5.286;2022-12-18T06:12:37;-0.70;99.90
13817;DHT22;6979;52.116;5.286;2022-12-18T06:15:07;-0.80;99.90
13817;DHT22;6979;52.116;5.286;2022-12-18T06:17:34;-0.70;99.90
13817;DHT22;6979;52.116;5.286;2022-12-18T06:20:01;-0.80;99.90
13817;DHT22;6979;52.116;5.286;2022-12-18T06:22:30;-0.80;99.90
13817;DHT22;6979;52.116;5.286;2022-12-18T06:24:58;-0.80;99.90
13817;DHT22;6979;52.116;5.286;2022-12-18T06:27:25;-0.80;99.90
13817;DHT22;6979;52.116;5.286;2022-12-18T06:29:52;-0.80;99.90
13817;DHT22;6979;52.116;5.286;2022-12-18T06:32:20;-0.80;99.90
13817;DHT22;6979;52.116;5.286;2022-12-18T06:34:47;-0.80;99.90
13817;DHT22;6979;52.116;5.286;2022-12-18T06:37:13;-0.90;99.90
13817;DHT22;6979;52.116;5.286;2022-12-18T06:39:40;-0.90;99.90
13817;DHT22;6979;52.116;5.286;2022-12-18T06:42:07;-0.90;99.90
13817;DHT22;6979;52.116;5.286;2022-12-18T06:44:34;-0.90;99.90
13817;DHT22;6979;52.116;5.286;2022-12-18T06:47:01;-0.90;99.90
13817;DHT22;6979;52.116;5.286;2022-12-18T06:49:29;-0.90;99.90
13817;DHT22;6979;52.116;5.286;2022-12-18T06:51:56;-0.90;99.90
13817;DHT22;6979;52.116;5.286;2022-12-18T06:54:23;-0.90;99.90
13817;DHT22;6979;52.116;5.286;2022-12-18T06:56:49;-0.90;99.90
13817;DHT22;6979;52.116;5.286;2022-12-18T06:59:16;-0.90;99.90
13817;DHT22;6979;52.116;5.286;2022-12-18T07:01:43;-0.90;99.90
13817;DHT22;6979;52.116;5.286;2022-12-18T07:04:10;-0.90;99.90
13817;DHT22;6979;52.116;5.286;2022-12-18T07:06:38;-0.90;99.90
13817;DHT22;6979;52.116;5.286;2022-12-18T07:09:05;-0.90;99.90
13817;DHT22;6979;52.116;5.286;2022-12-18T07:11:32;-0.90;99.90
13817;DHT22;6979;52.116;5.286;2022-12-18T07:13:59;-0.90;99.90
13817;DHT22;6979;52.116;5.286;2022-12-18T07:16:26;-0.90;99.90
13817;DHT22;6979;52.116;5.286;2022-12-18T07:18:55;-0.90;99.90
13817;DHT22;6979;52.116;5.286;2022-12-18T07:21:23;-0.90;99.90
13817;DHT22;6979;52.116;5.286;2022-12-18T07:23:52;-0.90;99.90
13817;DHT22;6979;52.116;5.286;2022-12-18T07:26:20;-0.90;99.90
13817;DHT22;6979;52.116;5.286;2022-12-18T07:28:48;-1.00;99.90
13817;DHT22;6979;52.116;5.286;2022-12-18T07:31:17;-1.00;99.90
13817;DHT22;6979;52.116;5.286;2022-12-18T07:33:45;-0.90;99.90
13817;DHT22;6979;52.116;5.286;2022-12-18T07:36:12;-1.00;99.90
13817;DHT22;6979;52.116;5.286;2022-12-18T07:38:39;-1.00;99.90
13817;DHT22;6979;52.116;5.286;2022-12-18T07:41:09;-1.00;99.90
13817;DHT22;6979;52.116;5.286;2022-12-18T07:43:36;-1.00;99.90
13817;DHT22;6979;52.116;5.286;2022-12-18T07:46:04;-0.90;99.90
13817;DHT22;6979;52.116;5.286;2022-12-18T07:48:31;-0.90;99.90
13817;DHT22;6979;52.116;5.286;2022-12-18T07:50:59;-0.90;99.90
13817;DHT22;6979;52.116;5.286;2022-12-18T07:53:26;-0.90;99.90
13817;DHT22;6979;52.116;5.286;2022-12-18T07:55:55;-0.90;99.90
13817;DHT22;6979;52.116;5.286;2022-12-18T07:58:24;-0.90;99.90
13817;DHT22;6979;52.116;5.286;2022-12-18T08:00:51;-0.90;99.90
13817;DHT22;6979;52.116;5.286;2022-12-18T08:03:17;-0.90;99.90
13817;DHT22;6979;52.116;5.286;2022-12-18T08:05:45;-0.80;99.90
13817;DHT22;6979;52.116;5.286;2022-12-18T08:08:11;-0.80;99.90
13817;DHT22;6979;52.116;5.286;2022-12-18T08:10:38;-0.80;99.90
13817;DHT22;6979;52.116;5.286;2022-12-18T08:13:06;-0.70;99.90
13817;DHT22;6979;52.116;5.286;2022-12-18T08:15:34;-0.70;99.90
13817;DHT22;6979;52.116;5.286;2022-12-18T08:18:01;-0.70;99.90
13817;DHT22;6979;52.116;5.286;2022-12-18T08:20:27;-0.60;99.90
13817;DHT22;6979;52.116;5.286;2022-12-18T08:22:54;-0.60;99.90
13817;DHT22;6979;52.116;5.286;2022-12-18T08:25:23;-0.60;99.90
13817;DHT22;6979;52.116;5.286;2022-12-18T08:27:50;-0.50;99.90
13817;DHT22;6979;52.116;5.286;2022-12-18T08:30:17;-0.50;99.90
13817;DHT22;6979;52.116;5.286;2022-12-18T08:32:45;-0.40;99.90
13817;DHT22;6979;52.116;5.286;2022-12-18T08:35:12;-0.40;99.90
13817;DHT22;6979;52.116;5.286;2022-12-18T08:37:39;-0.30;99.90
13817;DHT22;6979;52.116;5.286;2022-12-18T08:40:07;-0.30;99.90
13817;DHT22;6979;52.116;5.286;2022-12-18T08:42:34;-0.20;99.90
13817;DHT22;6979;52.116;5.286;2022-12-18T08:45:18;-0.10;99.90
13817;DHT22;6979;52.116;5.286;2022-12-18T08:47:46;-0.10;99.90
13817;DHT22;6979;52.116;5.286;2022-12-18T08:50:13;0.00;99.90
13817;DHT22;6979;52.116;5.286;2022-12-18T08:52:40;0.10;99.90
13817;DHT22;6979;52.116;5.286;2022-12-18T08:55:08;0.10;99.90
13817;DHT22;6979;52.116;5.286;2022-12-18T08:57:35;0.20;99.90
13817;DHT22;6979;52.116;5.286;2022-12-18T09:00:03;0.30;99.90
13817;DHT22;6979;52.116;5.286;2022-12-18T09:02:29;0.30;99.90
13817;DHT22;6979;52.116;5.286;2022-12-18T09:04:58;0.40;99.90
13817;DHT22;6979;52.116;5.286;2022-12-18T09:07:24;0.50;99.90
13817;DHT22;6979;52.116;5.286;2022-12-18T09:09:51;0.50;99.90
13817;DHT22;6979;52.116;5.286;2022-12-18T09:12:18;0.60;99.90
13817;DHT22;6979;52.116;5.286;2022-12-18T09:14:46;0.70;99.90
13817;DHT22;6979;52.116;5.286;2022-12-18T09:17:13;0.70;99.90
13817;DHT22;6979;52.116;5.286;2022-12-18T09:19:40;0.80;99.90
13817;DHT22;6979;52.116;5.286;2022-12-18T09:22:08;0.90;99.90
13817;DHT22;6979;52.116;5.286;2022-12-18T09:24:35;1.00;99.90
13817;DHT22;6979;52.116;5.286;2022-12-18T09:27:02;1.10;99.90
13817;DHT22;6979;52.116;5.286;2022-12-18T09:29:29;1.10;99.90
13817;DHT22;6979;52.116;5.286;2022-12-18T09:31:56;1.20;99.90
13817;DHT22;6979;52.116;5.286;2022-12-18T09:34:23;1.30;99.90
13817;DHT22;6979;52.116;5.286;2022-12-18T09:36:50;1.40;99.90
13817;DHT22;6979;52.116;5.286;2022-12-18T09:39:18;1.40;99.90
13817;DHT22;6979;52.116;5.286;2022-12-18T09:41:47;1.50;99.90
13817;DHT22;6979;52.116;5.286;2022-12-18T09:44:24;1.60;99.90
13817;DHT22;6979;52.116;5.286;2022-12-18T09:47:11;1.60;99.90
13817;DHT22;6979;52.116;5.286;2022-12-18T09:49:43;1.70;99.90
13817;DHT22;6979;52.116;5.286;2022-12-18T09:52:14;1.70;99.90
13817;DHT22;6979;52.116;5.286;2022-12-18T09:54:45;1.80;99.90
13817;DHT22;6979;52.116;5.286;2022-12-18T09:57:15;1.80;99.90
13817;DHT22;6979;52.116;5.286;2022-12-18T09:59:48;1.90;99.90
13817;DHT22;6979;52.116;5.286;2022-12-18T10:02:18;1.90;99.90
13817;DHT22;6979;52.116;5.286;2022-12-18T10:04:54;2.00;99.90
13817;DHT22;6979;52.116;5.286;2022-12-18T10:07:27;2.00;99.90
13817;DHT22;6979;52.116;5.286;2022-12-18T10:10:04;2.10;99.90
13817;DHT22;6979;52.116;5.286;2022-12-18T10:12:38;2.20;99.90
13817;DHT22;6979;52.116;5.286;2022-12-18T10:15:13;2.30;99.90
13817;DHT22;6979;52.116;5.286;2022-12-18T10:17:47;2.30;99.90
13817;DHT22;6979;52.116;5.286;2022-12-18T10:20:24;2.40;99.90
13817;DHT22;6979;52.116;5.286;2022-12-18T10:22:59;2.40;99.90
13817;DHT22;6979;52.116;5.286;2022-12-18T10:25:34;2.50;99.90
13817;DHT22;6979;52.116;5.286;2022-12-18T10:28:11;2.60;99.90
13817;DHT22;6979;52.116;5.286;2022-12-18T10:30:39;2.60;99.90
13817;DHT22;6979;52.116;5.286;2022-12-18T10:33:10;2.70;99.90
13817;DHT22;6979;52.116;5.286;2022-12-18T10:35:41;2.70;99.90
13817;DHT22;6979;52.116;5.286;2022-12-18T10:38:21;2.80;99.90
13817;DHT22;6979;52.116;5.286;2022-12-18T10:40:53;2.80;99.90
13817;DHT22;6979;52.116;5.286;2022-12-18T10:43:23;2.90;99.90
13817;DHT22;6979;52.116;5.286;2022-12-18T10:46:14;2.90;99.90
13817;DHT22;6979;52.116;5.286;2022-12-18T10:48:51;2.90;99.90
13817;DHT22;6979;52.116;5.286;2022-12-18T10:51:23;3.00;99.90
13817;DHT22;6979;52.116;5.286;2022-12-18T10:53:54;3.00;99.90
13817;DHT22;6979;52.116;5.286;2022-12-18T10:56:24;3.00;99.90
13817;DHT22;6979;52.116;5.286;2022-12-18T10:58:57;3.10;99.90
13817;DHT22;6979;52.116;5.286;2022-12-18T11:01:25;3.10;99.90
13817;DHT22;6979;52.116;5.286;2022-12-18T11:04:00;3.10;99.90
13817;DHT22;6979;52.116;5.286;2022-12-18T11:06:28;3.20;99.90
13817;DHT22;6979;52.116;5.286;2022-12-18T11:08:59;3.20;99.90
13817;DHT22;6979;52.116;5.286;2022-12-18T11:11:28;3.20;99.90
13817;DHT22;6979;52.116;5.286;2022-12-18T11:13:59;3.30;99.90
13817;DHT22;6979;52.116;5.286;2022-12-18T11:16:28;3.30;99.90
13817;DHT22;6979;52.116;5.286;2022-12-18T11:19:15;3.40;99.90
13817;DHT22;6979;52.116;5.286;2022-12-18T11:21:45;3.40;99.90
13817;DHT22;6979;52.116;5.286;2022-12-18T11:24:19;3.50;99.90
13817;DHT22;6979;52.116;5.286;2022-12-18T11:26:49;3.50;99.90
13817;DHT22;6979;52.116;5.286;2022-12-18T11:29:18;3.50;99.90
13817;DHT22;6979;52.116;5.286;2022-12-18T11:31:49;3.60;99.90
13817;DHT22;6979;52.116;5.286;2022-12-18T11:34:20;3.60;99.90
13817;DHT22;6979;52.116;5.286;2022-12-18T11:36:49;3.70;99.90
13817;DHT22;6979;52.116;5.286;2022-12-18T11:39:18;3.70;99.90
13817;DHT22;6979;52.116;5.286;2022-12-18T11:41:52;3.70;99.90
13817;DHT22;6979;52.116;5.286;2022-12-18T11:44:48;3.80;99.90
13817;DHT22;6979;52.116;5.286;2022-12-18T11:47:26;3.80;99.90
13817;DHT22;6979;52.116;5.286;2022-12-18T11:50:00;3.80;99.90
13817;DHT22;6979;52.116;5.286;2022-12-18T11:52:30;3.90;99.90
13817;DHT22;6979;52.116;5.286;2022-12-18T11:55:00;3.90;99.90
13817;DHT22;6979;52.116;5.286;2022-12-18T11:57:34;3.90;99.90
13817;DHT22;6979;52.116;5.286;2022-12-18T12:00:11;4.00;99.90
13817;DHT22;6979;52.116;5.286;2022-12-18T12:03:03;4.00;99.90
13817;DHT22;6979;52.116;5.286;2022-12-18T12:05:43;4.00;99.90
13817;DHT22;6979;52.116;5.286;2022-12-18T12:08:17;4.10;99.90
13817;DHT22;6979;52.116;5.286;2022-12-18T12:10:54;4.10;99.90
13817;DHT22;6979;52.116;5.286;2022-12-18T12:13:33;4.10;99.90
13817;DHT22;6979;52.116;5.286;2022-12-18T12:16:13;4.20;99.90
13817;DHT22;6979;52.116;5.286;2022-12-18T12:18:51;4.20;99.90
13817;DHT22;6979;52.116;5.286;2022-12-18T12:21:26;4.20;99.90
13817;DHT22;6979;52.116;5.286;2022-12-18T12:24:00;4.20;99.90
13817;DHT22;6979;52.116;5.286;2022-12-18T12:26:35;4.30;99.90
13817;DHT22;6979;52.116;5.286;2022-12-18T12:29:18;4.30;99.90
13817;DHT22;6979;52.116;5.286;2022-12-18T12:32:01;4.30;99.90
13817;DHT22;6979;52.116;5.286;2022-12-18T12:34:35;4.30;99.90
13817;DHT22;6979;52.116;5.286;2022-12-18T12:37:20;4.30;99.90
13817;DHT22;6979;52.116;5.286;2022-12-18T12:39:53;4.40;99.90
13817;DHT22;6979;52.116;5.286;2022-12-18T12:42:29;4.40;99.90
13817;DHT22;6979;52.116;5.286;2022-12-18T12:45:20;4.40;99.90
13817;DHT22;6979;52.116;5.286;2022-12-18T12:47:50;4.40;99.90
13817;DHT22;6979;52.116;5.286;2022-12-18T12:50:20;4.40;99.90
13817;DHT22;6979;52.116;5.286;2022-12-18T12:52:51;4.40;99.90
13817;DHT22;6979;52.116;5.286;2022-12-18T12:55:21;4.50;99.90
13817;DHT22;6979;52.116;5.286;2022-12-18T12:57:55;4.50;99.90
13817;DHT22;6979;52.116;5.286;2022-12-18T13:00:27;4.50;99.90
13817;DHT22;6979;52.116;5.286;2022-12-18T13:03:01;4.50;99.90
13817;DHT22;6979;52.116;5.286;2022-12-18T13:05:34;4.50;99.90
13817;DHT22;6979;52.116;5.286;2022-12-18T13:08:07;4.50;99.90
13817;DHT22;6979;52.116;5.286;2022-12-18T13:10:36;4.50;99.90
13817;DHT22;6979;52.116;5.286;2022-12-18T13:13:05;4.50;99.90
13817;DHT22;6979;52.116;5.286;2022-12-18T13:15:37;4.60;99.90
13817;DHT22;6979;52.116;5.286;2022-12-18T13:18:17;4.60;99.90
13817;DHT22;6979;52.116;5.286;2022-12-18T13:20:46;4.60;99.90
13817;DHT22;6979;52.116;5.286;2022-12-18T13:23:34;4.60;99.90
13817;DHT22;6979;52.116;5.286;2022-12-18T13:26:29;4.60;99.90
13817;DHT22;6979;52.116;5.286;2022-12-18T13:28:58;4.60;99.90
13817;DHT22;6979;52.116;5.286;2022-12-18T13:34:35;4.70;99.90
13817;DHT22;6979;52.116;5.286;2022-12-18T13:37:39;4.70;99.90
13817;DHT22;6979;52.116;5.286;2022-12-18T13:43:43;4.70;99.90
13817;DHT22;6979;52.116;5.286;2022-12-18T13:46:19;4.70;99.90
13817;DHT22;6979;52.116;5.286;2022-12-18T13:48:56;4.80;99.90
13817;DHT22;6979;52.116;5.286;2022-12-18T13:51:26;4.80;99.90
13817;DHT22;6979;52.116;5.286;2022-12-18T13:53:55;4.80;99.90
13817;DHT22;6979;52.116;5.286;2022-12-18T13:56:26;4.80;99.90
13817;DHT22;6979;52.116;5.286;2022-12-18T13:59:11;4.80;99.90
13817;DHT22;6979;52.116;5.286;2022-12-18T14:01:43;4.80;99.90
13817;DHT22;6979;52.116;5.286;2022-12-18T14:04:11;4.80;99.90
13817;DHT22;6979;52.116;5.286;2022-12-18T14:06:39;4.80;99.90
13817;DHT22;6979;52.116;5.286;2022-12-18T14:09:12;4.80;99.90
13817;DHT22;6979;52.116;5.286;2022-12-18T14:11:40;4.80;99.90
13817;DHT22;6979;52.116;5.286;2022-12-18T14:14:07;4.80;99.90
13817;DHT22;6979;52.116;5.286;2022-12-18T14:16:35;4.80;99.90
13817;DHT22;6979;52.116;5.286;2022-12-18T14:19:03;4.80;99.90
13817;DHT22;6979;52.116;5.286;2022-12-18T14:21:30;4.80;99.90
13817;DHT22;6979;52.116;5.286;2022-12-18T14:24:14;4.80;99.90
13817;DHT22;6979;52.116;5.286;2022-12-18T14:26:41;4.80;99.90
13817;DHT22;6979;52.116;5.286;2022-12-18T14:29:23;4.80;99.90
13817;DHT22;6979;52.116;5.286;2022-12-18T14:32:09;4.80;99.90
13817;DHT22;6979;52.116;5.286;2022-12-18T14:34:36;4.80;99.90
13817;DHT22;6979;52.116;5.286;2022-12-18T14:37:04;4.80;99.90
13817;DHT22;6979;52.116;5.286;2022-12-18T14:39:32;4.80;99.90
13817;DHT22;6979;52.116;5.286;2022-12-18T14:41:59;4.80;99.90
13817;DHT22;6979;52.116;5.286;2022-12-18T14:44:26;4.80;99.90
13817;DHT22;6979;52.116;5.286;2022-12-18T14:46:52;4.80;99.90
13817;DHT22;6979;52.116;5.286;2022-12-18T14:49:23;4.80;99.90
13817;DHT22;6979;52.116;5.286;2022-12-18T14:51:52;4.80;99.90
13817;DHT22;6979;52.116;5.286;2022-12-18T14:54:20;4.80;99.90
13817;DHT22;6979;52.116;5.286;2022-12-18T14:56:51;4.80;99.90
13817;DHT22;6979;52.116;5.286;2022-12-18T14:59:23;4.80;99.90
13817;DHT22;6979;52.116;5.286;2022-12-18T15:02:00;4.80;99.90
13817;DHT22;6979;52.116;5.286;2022-12-18T15:04:30;4.80;99.90
13817;DHT22;6979;52.116;5.286;2022-12-18T15:07:12;4.80;99.90
13817;DHT22;6979;52.116;5.286;2022-12-18T15:09:42;4.80;99.90
13817;DHT22;6979;52.116;5.286;2022-12-18T15:12:26;4.80;99.90
13817;DHT22;6979;52.116;5.286;2022-12-18T15:14:54;4.80;99.90
13817;DHT22;6979;52.116;5.286;2022-12-18T15:17:23;4.80;99.90
13817;DHT22;6979;52.116;5.286;2022-12-18T15:19:52;4.80;99.90
13817;DHT22;6979;52.116;5.286;2022-12-18T15:22:22;4.80;99.90
13817;DHT22;6979;52.116;5.286;2022-12-18T15:24:51;4.80;99.90
13817;DHT22;6979;52.116;5.286;2022-12-18T15:27:29;4.80;99.90
13817;DHT22;6979;52.116;5.286;2022-12-18T15:30:18;4.80;99.90
13817;DHT22;6979;52.116;5.286;2022-12-18T15:32:45;4.70;99.90
13817;DHT22;6979;52.116;5.286;2022-12-18T15:35:18;4.70;99.90
13817;DHT22;6979;52.116;5.286;2022-12-18T15:37:46;4.70;99.90
13817;DHT22;6979;52.116;5.286;2022-12-18T15:40:14;4.80;99.90
13817;DHT22;6979;52.116;5.286;2022-12-18T15:42:42;4.80;99.90
13817;DHT22;6979;52.116;5.286;2022-12-18T15:45:27;4.80;99.90
13817;DHT22;6979;52.116;5.286;2022-12-18T15:47:55;4.80;99.90
13817;DHT22;6979;52.116;5.286;2022-12-18T15:50:22;4.70;99.90
13817;DHT22;6979;52.116;5.286;2022-12-18T15:52:51;4.80;99.90
13817;DHT22;6979;52.116;5.286;2022-12-18T15:55:19;4.70;99.90
13817;DHT22;6979;52.116;5.286;2022-12-18T15:58:06;4.70;99.90
13817;DHT22;6979;52.116;5.286;2022-12-18T16:00:35;4.70;99.90
13817;DHT22;6979;52.116;5.286;2022-12-18T16:03:03;4.70;99.90
13817;DHT22;6979;52.116;5.286;2022-12-18T16:05:31;4.70;99.90
13817;DHT22;6979;52.116;5.286;2022-12-18T16:07:58;4.70;99.90
13817;DHT22;6979;52.116;5.286;2022-12-18T16:10:25;4.80;99.90
13817;DHT22;6979;52.116;5.286;2022-12-18T16:12:52;4.70;99.90
13817;DHT22;6979;52.116;5.286;2022-12-18T16:15:21;4.70;99.90
13817;DHT22;6979;52.116;5.286;2022-12-18T16:17:48;4.70;99.90
13817;DHT22;6979;52.116;5.286;2022-12-18T16:20:16;4.70;99.90
13817;DHT22;6979;52.116;5.286;2022-12-18T16:22:44;4.70;99.90
13817;DHT22;6979;52.116;5.286;2022-12-18T16:25:18;4.70;99.90
13817;DHT22;6979;52.116;5.286;2022-12-18T16:27:48;4.70;99.90
13817;DHT22;6979;52.116;5.286;2022-12-18T16:30:16;4.70;99.90